sensor_id;sensor_type;location;lat;lon;timestamp;P1;durP1;ratioP1;P2;durP2;ratioP2
52354;SDS011;38286;51.156;17.038;2023-02-25T00:00:07;7.15;;;3.78;;
52354;SDS011;38286;51.156;17.038;2023-02-25T00:05:27;6.18;;;4.07;;
52354;SDS011;38286;51.156;17.038;2023-02-25T00:07:54;6.53;;;3.95;;
52354;SDS011;38286;51.156;17.038;2023-02-25T00:10:20;5.93;;;3.95;;
52354;SDS011;38286;51.156;17.038;2023-02-25T00:12:46;7.57;;;4.20;;
52354;SDS011;38286;51.156;17.038;2023-02-25T00:15:12;6.72;;;4.00;;
52354;SDS011;38286;51.156;17.038;2023-02-25T00:17:38;7.15;;;3.70;;
52354;SDS011;38286;51.156;17.038;2023-02-25T00:20:05;6.85;;;4.57;;
52354;SDS011;38286;51.156;17.038;2023-02-25T00:22:34;6.20;;;4.22;;
52354;SDS011;38286;51.156;17.038;2023-02-25T00:25:00;5.35;;;3.83;;
52354;SDS011;38286;51.156;17.038;2023-02-25T00:27:26;5.82;;;3.95;;
52354;SDS011;38286;51.156;17.038;2023-02-25T00:29:53;6.43;;;3.70;;
52354;SDS011;38286;51.156;17.038;2023-02-25T00:32:19;4.88;;;3.97;;
52354;SDS011;38286;51.156;17.038;2023-02-25T00:34:45;5.18;;;3.80;;
52354;SDS011;38286;51.156;17.038;2023-02-25T00:37:12;4.80;;;3.35;;
52354;SDS011;38286;51.156;17.038;2023-02-25T00:39:38;5.43;;;3.55;;
52354;SDS011;38286;51.156;17.038;2023-02-25T00:42:13;5.90;;;4.10;;
52354;SDS011;38286;51.156;17.038;2023-02-25T00:44:44;6.47;;;3.88;;
52354;SDS011;38286;51.156;17.038;2023-02-25T00:47:11;7.65;;;3.80;;
52354;SDS011;38286;51.156;17.038;2023-02-25T00:49:38;5.40;;;3.50;;
52354;SDS011;38286;51.156;17.038;2023-02-25T00:52:04;7.18;;;3.78;;
52354;SDS011;38286;51.156;17.038;2023-02-25T00:54:31;5.93;;;4.05;;
52354;SDS011;38286;51.156;17.038;2023-02-25T00:56:57;7.32;;;3.63;;
52354;SDS011;38286;51.156;17.038;2023-02-25T00:59:23;5.28;;;3.75;;
52354;SDS011;38286;51.156;17.038;2023-02-25T01:01:49;6.45;;;3.70;;
52354;SDS011;38286;51.156;17.038;2023-02-25T01:04:15;5.93;;;3.55;;
52354;SDS011;38286;51.156;17.038;2023-02-25T01:06:41;7.18;;;3.85;;
52354;SDS011;38286;51.156;17.038;2023-02-25T01:09:07;7.47;;;4.00;;
52354;SDS011;38286;51.156;17.038;2023-02-25T01:11:38;5.55;;;3.65;;
52354;SDS011;38286;51.156;17.038;2023-02-25T01:14:07;6.32;;;4.30;;
52354;SDS011;38286;51.156;17.038;2023-02-25T01:16:35;8.02;;;4.03;;
52354;SDS011;38286;51.156;17.038;2023-02-25T01:19:03;8.93;;;4.53;;
52354;SDS011;38286;51.156;17.038;2023-02-25T01:21:32;6.85;;;4.35;;
52354;SDS011;38286;51.156;17.038;2023-02-25T01:24:04;7.68;;;3.97;;
52354;SDS011;38286;51.156;17.038;2023-02-25T01:26:51;8.70;;;4.82;;
52354;SDS011;38286;51.156;17.038;2023-02-25T01:29:19;7.88;;;4.53;;
52354;SDS011;38286;51.156;17.038;2023-02-25T01:31:47;7.47;;;4.30;;
52354;SDS011;38286;51.156;17.038;2023-02-25T01:34:16;6.53;;;4.45;;
52354;SDS011;38286;51.156;17.038;2023-02-25T01:36:42;8.45;;;5.10;;
52354;SDS011;38286;51.156;17.038;2023-02-25T01:39:09;9.30;;;5.03;;
52354;SDS011;38286;51.156;17.038;2023-02-25T01:41:36;8.13;;;5.00;;
52354;SDS011;38286;51.156;17.038;2023-02-25T01:46:34;9.18;;;4.60;;
52354;SDS011;38286;51.156;17.038;2023-02-25T01:49:01;10.10;;;5.38;;
52354;SDS011;38286;51.156;17.038;2023-02-25T01:51:28;10.32;;;5.45;;
52354;SDS011;38286;51.156;17.038;2023-02-25T01:53:56;6.57;;;4.22;;
52354;SDS011;38286;51.156;17.038;2023-02-25T01:56:24;8.48;;;5.47;;
52354;SDS011;38286;51.156;17.038;2023-02-25T01:58:50;10.40;;;5.55;;
52354;SDS011;38286;51.156;17.038;2023-02-25T02:01:18;10.57;;;5.80;;
52354;SDS011;38286;51.156;17.038;2023-02-25T02:03:45;10.35;;;6.22;;
52354;SDS011;38286;51.156;17.038;2023-02-25T02:06:12;10.52;;;5.97;;
52354;SDS011;38286;51.156;17.038;2023-02-25T02:08:41;11.35;;;6.20;;
52354;SDS011;38286;51.156;17.038;2023-02-25T02:11:08;10.30;;;5.78;;
52354;SDS011;38286;51.156;17.038;2023-02-25T02:13:34;11.50;;;6.50;;
52354;SDS011;38286;51.156;17.038;2023-02-25T02:16:06;13.35;;;6.20;;
52354;SDS011;38286;51.156;17.038;2023-02-25T02:18:55;12.68;;;5.97;;
52354;SDS011;38286;51.156;17.038;2023-02-25T02:27:06;12.00;;;5.60;;
52354;SDS011;38286;51.156;17.038;2023-02-25T02:38:21;9.85;;;6.03;;
52354;SDS011;38286;51.156;17.038;2023-02-25T02:41:39;14.00;;;5.70;;
52354;SDS011;38286;51.156;17.038;2023-02-25T02:43:46;12.05;;;6.10;;
52354;SDS011;38286;51.156;17.038;2023-02-25T02:46:20;9.90;;;5.50;;
52354;SDS011;38286;51.156;17.038;2023-02-25T02:51:35;9.02;;;5.93;;
52354;SDS011;38286;51.156;17.038;2023-02-25T02:54:05;8.52;;;4.93;;
52354;SDS011;38286;51.156;17.038;2023-02-25T02:56:33;10.73;;;5.15;;
52354;SDS011;38286;51.156;17.038;2023-02-25T02:59:04;9.82;;;5.45;;
52354;SDS011;38286;51.156;17.038;2023-02-25T03:01:40;10.80;;;5.38;;
52354;SDS011;38286;51.156;17.038;2023-02-25T03:04:11;9.57;;;5.60;;
52354;SDS011;38286;51.156;17.038;2023-02-25T03:06:42;8.25;;;5.05;;
52354;SDS011;38286;51.156;17.038;2023-02-25T03:09:17;9.25;;;5.30;;
52354;SDS011;38286;51.156;17.038;2023-02-25T03:11:45;8.70;;;4.75;;
52354;SDS011;38286;51.156;17.038;2023-02-25T03:14:20;8.98;;;4.50;;
52354;SDS011;38286;51.156;17.038;2023-02-25T03:22:15;9.43;;;5.15;;
52354;SDS011;38286;51.156;17.038;2023-02-25T03:24:49;9.50;;;5.07;;
52354;SDS011;38286;51.156;17.038;2023-02-25T03:27:19;7.70;;;4.93;;
52354;SDS011;38286;51.156;17.038;2023-02-25T03:29:47;9.25;;;4.68;;
52354;SDS011;38286;51.156;17.038;2023-02-25T03:32:13;8.13;;;4.13;;
52354;SDS011;38286;51.156;17.038;2023-02-25T03:34:43;8.73;;;4.88;;
52354;SDS011;38286;51.156;17.038;2023-02-25T03:37:13;8.93;;;4.63;;
52354;SDS011;38286;51.156;17.038;2023-02-25T03:39:46;9.40;;;4.65;;
52354;SDS011;38286;51.156;17.038;2023-02-25T03:42:17;7.32;;;4.25;;
52354;SDS011;38286;51.156;17.038;2023-02-25T03:44:45;7.70;;;4.13;;
52354;SDS011;38286;51.156;17.038;2023-02-25T03:47:16;7.35;;;4.18;;
52354;SDS011;38286;51.156;17.038;2023-02-25T03:49:49;7.70;;;4.38;;
52354;SDS011;38286;51.156;17.038;2023-02-25T03:52:21;9.23;;;4.13;;
52354;SDS011;38286;51.156;17.038;2023-02-25T03:54:53;8.00;;;3.97;;
52354;SDS011;38286;51.156;17.038;2023-02-25T03:57:20;10.05;;;4.18;;
52354;SDS011;38286;51.156;17.038;2023-02-25T03:59:49;5.70;;;3.22;;
52354;SDS011;38286;51.156;17.038;2023-02-25T04:02:25;6.30;;;3.55;;
52354;SDS011;38286;51.156;17.038;2023-02-25T04:04:52;6.00;;;3.15;;
52354;SDS011;38286;51.156;17.038;2023-02-25T04:07:19;6.20;;;3.03;;
52354;SDS011;38286;51.156;17.038;2023-02-25T04:09:45;8.20;;;3.70;;
52354;SDS011;38286;51.156;17.038;2023-02-25T04:12:11;8.73;;;3.60;;
52354;SDS011;38286;51.156;17.038;2023-02-25T04:14:36;5.47;;;3.30;;
52354;SDS011;38286;51.156;17.038;2023-02-25T04:17:02;6.18;;;3.38;;
52354;SDS011;38286;51.156;17.038;2023-02-25T04:19:30;6.47;;;3.22;;
52354;SDS011;38286;51.156;17.038;2023-02-25T04:21:56;5.00;;;2.80;;
52354;SDS011;38286;51.156;17.038;2023-02-25T04:24:24;7.72;;;3.13;;
52354;SDS011;38286;51.156;17.038;2023-02-25T04:26:50;8.05;;;3.17;;
52354;SDS011;38286;51.156;17.038;2023-02-25T04:29:23;5.75;;;3.08;;
52354;SDS011;38286;51.156;17.038;2023-02-25T04:31:50;6.25;;;2.97;;
52354;SDS011;38286;51.156;17.038;2023-02-25T04:34:16;7.22;;;2.97;;
52354;SDS011;38286;51.156;17.038;2023-02-25T04:36:42;9.30;;;3.30;;
52354;SDS011;38286;51.156;17.038;2023-02-25T04:39:10;4.47;;;2.70;;
52354;SDS011;38286;51.156;17.038;2023-02-25T04:41:36;7.10;;;2.58;;
52354;SDS011;38286;51.156;17.038;2023-02-25T04:44:02;6.53;;;2.83;;
52354;SDS011;38286;51.156;17.038;2023-02-25T04:46:29;7.57;;;3.10;;
52354;SDS011;38286;51.156;17.038;2023-02-25T04:48:55;8.98;;;3.47;;
52354;SDS011;38286;51.156;17.038;2023-02-25T04:51:21;9.07;;;3.03;;
52354;SDS011;38286;51.156;17.038;2023-02-25T04:53:46;6.28;;;2.58;;
52354;SDS011;38286;51.156;17.038;2023-02-25T04:56:13;5.85;;;3.10;;
52354;SDS011;38286;51.156;17.038;2023-02-25T04:58:38;5.90;;;2.50;;
52354;SDS011;38286;51.156;17.038;2023-02-25T05:01:05;4.82;;;2.85;;
52354;SDS011;38286;51.156;17.038;2023-02-25T05:03:32;6.63;;;2.83;;
52354;SDS011;38286;51.156;17.038;2023-02-25T05:05:59;5.15;;;2.60;;
52354;SDS011;38286;51.156;17.038;2023-02-25T05:08:25;7.40;;;2.70;;
52354;SDS011;38286;51.156;17.038;2023-02-25T05:10:51;4.25;;;2.42;;
52354;SDS011;38286;51.156;17.038;2023-02-25T05:13:17;4.78;;;2.17;;
52354;SDS011;38286;51.156;17.038;2023-02-25T05:15:43;7.07;;;2.53;;
52354;SDS011;38286;51.156;17.038;2023-02-25T05:18:09;5.80;;;2.08;;
52354;SDS011;38286;51.156;17.038;2023-02-25T05:20:39;6.65;;;2.63;;
52354;SDS011;38286;51.156;17.038;2023-02-25T05:23:08;8.05;;;2.95;;
52354;SDS011;38286;51.156;17.038;2023-02-25T05:25:35;4.20;;;1.55;;
52354;SDS011;38286;51.156;17.038;2023-02-25T05:28:08;7.90;;;2.75;;
52354;SDS011;38286;51.156;17.038;2023-02-25T05:30:36;8.80;;;2.70;;
52354;SDS011;38286;51.156;17.038;2023-02-25T05:33:03;4.50;;;2.35;;
52354;SDS011;38286;51.156;17.038;2023-02-25T05:35:29;7.15;;;3.20;;
52354;SDS011;38286;51.156;17.038;2023-02-25T05:37:57;6.22;;;2.78;;
52354;SDS011;38286;51.156;17.038;2023-02-25T05:40:23;5.30;;;2.55;;
52354;SDS011;38286;51.156;17.038;2023-02-25T05:42:49;5.10;;;2.35;;
52354;SDS011;38286;51.156;17.038;2023-02-25T05:45:14;6.18;;;2.33;;
52354;SDS011;38286;51.156;17.038;2023-02-25T05:47:41;6.72;;;2.65;;
52354;SDS011;38286;51.156;17.038;2023-02-25T05:50:07;3.88;;;2.10;;
52354;SDS011;38286;51.156;17.038;2023-02-25T05:52:34;6.63;;;2.78;;
52354;SDS011;38286;51.156;17.038;2023-02-25T05:55:00;5.65;;;2.70;;
52354;SDS011;38286;51.156;17.038;2023-02-25T05:57:26;8.82;;;2.78;;
52354;SDS011;38286;51.156;17.038;2023-02-25T05:59:52;6.72;;;2.63;;
52354;SDS011;38286;51.156;17.038;2023-02-25T06:02:17;7.30;;;2.67;;
52354;SDS011;38286;51.156;17.038;2023-02-25T06:04:43;8.15;;;2.67;;
52354;SDS011;38286;51.156;17.038;2023-02-25T06:07:09;6.18;;;2.50;;
52354;SDS011;38286;51.156;17.038;2023-02-25T06:09:35;6.72;;;2.15;;
52354;SDS011;38286;51.156;17.038;2023-02-25T06:12:01;5.75;;;2.25;;
52354;SDS011;38286;51.156;17.038;2023-02-25T06:14:27;4.53;;;2.20;;
52354;SDS011;38286;51.156;17.038;2023-02-25T06:16:52;5.47;;;1.88;;
52354;SDS011;38286;51.156;17.038;2023-02-25T06:19:21;3.90;;;1.80;;
52354;SDS011;38286;51.156;17.038;2023-02-25T06:21:47;3.42;;;1.95;;
52354;SDS011;38286;51.156;17.038;2023-02-25T06:24:13;4.55;;;2.13;;
52354;SDS011;38286;51.156;17.038;2023-02-25T06:26:40;4.30;;;2.10;;
52354;SDS011;38286;51.156;17.038;2023-02-25T06:29:08;5.05;;;2.00;;
52354;SDS011;38286;51.156;17.038;2023-02-25T06:31:34;3.30;;;2.38;;
52354;SDS011;38286;51.156;17.038;2023-02-25T06:34:00;4.00;;;1.90;;
52354;SDS011;38286;51.156;17.038;2023-02-25T06:36:25;3.17;;;1.92;;
52354;SDS011;38286;51.156;17.038;2023-02-25T06:38:51;4.68;;;2.35;;
52354;SDS011;38286;51.156;17.038;2023-02-25T06:41:19;2.47;;;1.70;;
52354;SDS011;38286;51.156;17.038;2023-02-25T06:43:46;5.40;;;2.60;;
52354;SDS011;38286;51.156;17.038;2023-02-25T06:46:16;4.68;;;2.58;;
52354;SDS011;38286;51.156;17.038;2023-02-25T06:48:43;4.10;;;2.75;;
52354;SDS011;38286;51.156;17.038;2023-02-25T06:51:09;3.95;;;2.70;;
52354;SDS011;38286;51.156;17.038;2023-02-25T06:53:37;3.97;;;2.70;;
52354;SDS011;38286;51.156;17.038;2023-02-25T06:56:04;4.63;;;3.20;;
52354;SDS011;38286;51.156;17.038;2023-02-25T06:58:32;3.80;;;2.50;;
52354;SDS011;38286;51.156;17.038;2023-02-25T07:00:58;4.57;;;2.85;;
52354;SDS011;38286;51.156;17.038;2023-02-25T07:03:24;3.85;;;2.80;;
52354;SDS011;38286;51.156;17.038;2023-02-25T07:05:50;3.67;;;2.60;;
52354;SDS011;38286;51.156;17.038;2023-02-25T07:08:16;4.57;;;2.80;;
52354;SDS011;38286;51.156;17.038;2023-02-25T07:10:41;4.45;;;2.70;;
52354;SDS011;38286;51.156;17.038;2023-02-25T07:13:07;3.97;;;2.70;;
52354;SDS011;38286;51.156;17.038;2023-02-25T07:15:34;5.32;;;2.40;;
52354;SDS011;38286;51.156;17.038;2023-02-25T07:18:00;3.15;;;2.40;;
52354;SDS011;38286;51.156;17.038;2023-02-25T07:20:26;3.08;;;2.72;;
52354;SDS011;38286;51.156;17.038;2023-02-25T07:22:52;3.15;;;2.40;;
52354;SDS011;38286;51.156;17.038;2023-02-25T07:25:17;3.25;;;2.30;;
52354;SDS011;38286;51.156;17.038;2023-02-25T07:27:43;4.53;;;3.10;;
52354;SDS011;38286;51.156;17.038;2023-02-25T07:30:09;4.10;;;2.17;;
52354;SDS011;38286;51.156;17.038;2023-02-25T07:32:41;3.97;;;2.30;;
52354;SDS011;38286;51.156;17.038;2023-02-25T07:35:07;4.25;;;2.83;;
52354;SDS011;38286;51.156;17.038;2023-02-25T07:37:33;3.90;;;2.50;;
52354;SDS011;38286;51.156;17.038;2023-02-25T07:39:59;2.90;;;2.10;;
52354;SDS011;38286;51.156;17.038;2023-02-25T07:42:25;3.65;;;2.40;;
52354;SDS011;38286;51.156;17.038;2023-02-25T07:44:51;4.38;;;2.42;;
52354;SDS011;38286;51.156;17.038;2023-02-25T07:47:17;3.30;;;2.10;;
52354;SDS011;38286;51.156;17.038;2023-02-25T07:49:44;3.97;;;2.40;;
52354;SDS011;38286;51.156;17.038;2023-02-25T07:52:10;2.97;;;2.20;;
52354;SDS011;38286;51.156;17.038;2023-02-25T07:54:35;5.45;;;2.22;;
52354;SDS011;38286;51.156;17.038;2023-02-25T07:57:01;5.18;;;2.80;;
52354;SDS011;38286;51.156;17.038;2023-02-25T07:59:27;4.55;;;2.00;;
52354;SDS011;38286;51.156;17.038;2023-02-25T08:01:53;4.25;;;2.78;;
52354;SDS011;38286;51.156;17.038;2023-02-25T08:04:18;5.32;;;2.58;;
52354;SDS011;38286;51.156;17.038;2023-02-25T08:06:44;3.28;;;2.08;;
52354;SDS011;38286;51.156;17.038;2023-02-25T08:09:11;5.13;;;2.70;;
52354;SDS011;38286;51.156;17.038;2023-02-25T08:11:38;4.47;;;2.70;;
52354;SDS011;38286;51.156;17.038;2023-02-25T08:14:04;3.20;;;2.40;;
52354;SDS011;38286;51.156;17.038;2023-02-25T08:16:30;4.75;;;2.97;;
52354;SDS011;38286;51.156;17.038;2023-02-25T08:18:57;5.10;;;2.78;;
52354;SDS011;38286;51.156;17.038;2023-02-25T08:21:23;3.83;;;2.60;;
52354;SDS011;38286;51.156;17.038;2023-02-25T08:23:49;4.70;;;3.20;;
52354;SDS011;38286;51.156;17.038;2023-02-25T08:26:16;3.95;;;2.90;;
52354;SDS011;38286;51.156;17.038;2023-02-25T08:28:42;3.80;;;3.10;;
52354;SDS011;38286;51.156;17.038;2023-02-25T08:31:09;3.90;;;2.63;;
52354;SDS011;38286;51.156;17.038;2023-02-25T08:33:36;3.33;;;2.90;;
52354;SDS011;38286;51.156;17.038;2023-02-25T08:36:07;3.58;;;2.72;;
52354;SDS011;38286;51.156;17.038;2023-02-25T08:38:34;3.60;;;2.55;;
52354;SDS011;38286;51.156;17.038;2023-02-25T08:41:01;3.55;;;2.30;;
52354;SDS011;38286;51.156;17.038;2023-02-25T08:43:27;3.00;;;2.70;;
52354;SDS011;38286;51.156;17.038;2023-02-25T08:45:53;3.33;;;2.40;;
52354;SDS011;38286;51.156;17.038;2023-02-25T08:48:20;4.95;;;2.75;;
52354;SDS011;38286;51.156;17.038;2023-02-25T08:50:46;2.95;;;2.55;;
52354;SDS011;38286;51.156;17.038;2023-02-25T08:53:12;2.78;;;2.47;;
52354;SDS011;38286;51.156;17.038;2023-02-25T08:55:37;3.53;;;2.47;;
52354;SDS011;38286;51.156;17.038;2023-02-25T08:58:04;4.57;;;2.90;;
52354;SDS011;38286;51.156;17.038;2023-02-25T09:00:30;4.15;;;2.65;;
52354;SDS011;38286;51.156;17.038;2023-02-25T09:02:56;3.70;;;2.65;;
52354;SDS011;38286;51.156;17.038;2023-02-25T09:05:22;3.60;;;2.60;;
52354;SDS011;38286;51.156;17.038;2023-02-25T09:07:50;3.30;;;2.60;;
52354;SDS011;38286;51.156;17.038;2023-02-25T09:10:16;3.55;;;2.60;;
52354;SDS011;38286;51.156;17.038;2023-02-25T09:12:42;3.00;;;2.30;;
52354;SDS011;38286;51.156;17.038;2023-02-25T09:15:09;4.78;;;2.25;;
52354;SDS011;38286;51.156;17.038;2023-02-25T09:17:36;3.50;;;2.20;;
52354;SDS011;38286;51.156;17.038;2023-02-25T09:20:02;3.42;;;2.60;;
52354;SDS011;38286;51.156;17.038;2023-02-25T09:22:34;4.00;;;2.65;;
52354;SDS011;38286;51.156;17.038;2023-02-25T09:25:00;4.50;;;2.58;;
52354;SDS011;38286;51.156;17.038;2023-02-25T09:27:26;3.08;;;2.35;;
52354;SDS011;38286;51.156;17.038;2023-02-25T09:29:51;6.07;;;2.42;;
52354;SDS011;38286;51.156;17.038;2023-02-25T09:32:18;3.72;;;2.63;;
52354;SDS011;38286;51.156;17.038;2023-02-25T09:34:45;2.88;;;2.00;;
52354;SDS011;38286;51.156;17.038;2023-02-25T09:37:13;2.00;;;1.80;;
52354;SDS011;38286;51.156;17.038;2023-02-25T09:39:39;3.15;;;2.40;;
52354;SDS011;38286;51.156;17.038;2023-02-25T09:42:20;3.97;;;2.63;;
52354;SDS011;38286;51.156;17.038;2023-02-25T09:44:52;2.92;;;2.38;;
52354;SDS011;38286;51.156;17.038;2023-02-25T09:47:20;3.67;;;2.30;;
52354;SDS011;38286;51.156;17.038;2023-02-25T09:52:45;2.63;;;2.15;;
52354;SDS011;38286;51.156;17.038;2023-02-25T09:58:04;2.55;;;1.90;;
52354;SDS011;38286;51.156;17.038;2023-02-25T10:00:36;2.85;;;2.30;;
52354;SDS011;38286;51.156;17.038;2023-02-25T10:03:23;2.28;;;2.08;;
52354;SDS011;38286;51.156;17.038;2023-02-25T10:06:03;2.92;;;2.20;;
52354;SDS011;38286;51.156;17.038;2023-02-25T10:08:33;2.85;;;2.53;;
52354;SDS011;38286;51.156;17.038;2023-02-25T10:21:56;2.60;;;2.33;;
52354;SDS011;38286;51.156;17.038;2023-02-25T10:24:31;2.67;;;2.20;;
52354;SDS011;38286;51.156;17.038;2023-02-25T10:27:03;3.67;;;2.47;;
52354;SDS011;38286;51.156;17.038;2023-02-25T10:29:44;3.60;;;2.53;;
52354;SDS011;38286;51.156;17.038;2023-02-25T10:34:53;2.75;;;1.83;;
52354;SDS011;38286;51.156;17.038;2023-02-25T10:37:23;1.77;;;1.67;;
52354;SDS011;38286;51.156;17.038;2023-02-25T10:39:56;1.92;;;1.42;;
52354;SDS011;38286;51.156;17.038;2023-02-25T10:42:23;1.55;;;1.27;;
52354;SDS011;38286;51.156;17.038;2023-02-25T10:44:50;0.93;;;0.88;;
52354;SDS011;38286;51.156;17.038;2023-02-25T10:47:17;1.08;;;0.80;;
52354;SDS011;38286;51.156;17.038;2023-02-25T10:50:39;0.90;;;0.90;;
52354;SDS011;38286;51.156;17.038;2023-02-25T10:52:53;1.33;;;1.20;;
52354;SDS011;38286;51.156;17.038;2023-02-25T10:55:24;1.88;;;0.85;;
52354;SDS011;38286;51.156;17.038;2023-02-25T10:58:42;1.33;;;1.20;;
52354;SDS011;38286;51.156;17.038;2023-02-25T11:01:07;0.77;;;0.70;;
52354;SDS011;38286;51.156;17.038;2023-02-25T11:03:43;10.07;;;1.00;;
52354;SDS011;38286;51.156;17.038;2023-02-25T11:06:24;0.75;;;0.70;;
52354;SDS011;38286;51.156;17.038;2023-02-25T11:08:55;0.60;;;0.60;;
52354;SDS011;38286;51.156;17.038;2023-02-25T11:11:33;1.00;;;0.80;;
52354;SDS011;38286;51.156;17.038;2023-02-25T11:14:04;2.08;;;0.90;;
52354;SDS011;38286;51.156;17.038;2023-02-25T11:16:34;1.95;;;0.98;;
52354;SDS011;38286;51.156;17.038;2023-02-25T11:19:03;0.88;;;0.70;;
52354;SDS011;38286;51.156;17.038;2023-02-25T11:21:37;0.70;;;0.70;;
52354;SDS011;38286;51.156;17.038;2023-02-25T11:24:52;0.70;;;0.70;;
52354;SDS011;38286;51.156;17.038;2023-02-25T11:26:55;0.80;;;0.70;;
52354;SDS011;38286;51.156;17.038;2023-02-25T11:29:24;0.93;;;0.82;;
52354;SDS011;38286;51.156;17.038;2023-02-25T11:31:58;1.85;;;1.20;;
52354;SDS011;38286;51.156;17.038;2023-02-25T11:34:26;2.05;;;0.80;;
52354;SDS011;38286;51.156;17.038;2023-02-25T11:36:54;0.68;;;0.60;;
52354;SDS011;38286;51.156;17.038;2023-02-25T11:39:25;0.95;;;0.70;;
52354;SDS011;38286;51.156;17.038;2023-02-25T11:41:55;0.55;;;0.55;;
52354;SDS011;38286;51.156;17.038;2023-02-25T11:44:42;0.90;;;0.80;;
52354;SDS011;38286;51.156;17.038;2023-02-25T11:47:21;1.38;;;0.90;;
52354;SDS011;38286;51.156;17.038;2023-02-25T12:00:57;0.63;;;0.57;;
52354;SDS011;38286;51.156;17.038;2023-02-25T12:05:56;1.23;;;0.90;;
52354;SDS011;38286;51.156;17.038;2023-02-25T12:11:24;1.30;;;0.90;;
52354;SDS011;38286;51.156;17.038;2023-02-25T12:22:53;1.83;;;0.95;;
52354;SDS011;38286;51.156;17.038;2023-02-25T12:28:32;0.70;;;0.70;;
52354;SDS011;38286;51.156;17.038;2023-02-25T12:36:43;1.40;;;0.80;;
52354;SDS011;38286;51.156;17.038;2023-02-25T12:53:23;0.82;;;0.50;;
52354;SDS011;38286;51.156;17.038;2023-02-25T12:58:26;0.85;;;0.80;;
52354;SDS011;38286;51.156;17.038;2023-02-25T13:31:00;2.75;;;1.30;;
52354;SDS011;38286;51.156;17.038;2023-02-25T13:53:47;6.47;;;2.08;;
52354;SDS011;38286;51.156;17.038;2023-02-25T14:24:01;11.02;;;4.38;;
52354;SDS011;38286;51.156;17.038;2023-02-25T14:26:35;14.98;;;5.53;;
52354;SDS011;38286;51.156;17.038;2023-02-25T14:29:12;36.45;;;13.13;;
52354;SDS011;38286;51.156;17.038;2023-02-25T14:37:21;22.10;;;12.20;;
52354;SDS011;38286;51.156;17.038;2023-02-25T14:40:02;6.80;;;4.35;;
52354;SDS011;38286;51.156;17.038;2023-02-25T14:45:21;5.32;;;3.70;;
52354;SDS011;38286;51.156;17.038;2023-02-25T14:48:02;7.15;;;5.57;;
52354;SDS011;38286;51.156;17.038;2023-02-25T15:03:49;30.13;;;12.93;;
52354;SDS011;38286;51.156;17.038;2023-02-25T15:06:51;16.70;;;9.35;;
52354;SDS011;38286;51.156;17.038;2023-02-25T15:09:28;6.15;;;3.83;;
52354;SDS011;38286;51.156;17.038;2023-02-25T15:12:02;9.50;;;5.15;;
52354;SDS011;38286;51.156;17.038;2023-02-25T15:14:54;22.27;;;13.23;;
52354;SDS011;38286;51.156;17.038;2023-02-25T15:20:24;4.32;;;3.22;;
52354;SDS011;38286;51.156;17.038;2023-02-25T15:23:14;4.05;;;2.70;;
52354;SDS011;38286;51.156;17.038;2023-02-25T15:51:54;2.55;;;2.20;;
52354;SDS011;38286;51.156;17.038;2023-02-25T15:56:53;5.93;;;4.13;;
52354;SDS011;38286;51.156;17.038;2023-02-25T16:10:02;4.28;;;3.92;;
52354;SDS011;38286;51.156;17.038;2023-02-25T16:12:30;3.10;;;2.30;;
52354;SDS011;38286;51.156;17.038;2023-02-25T16:14:56;5.15;;;3.08;;
52354;SDS011;38286;51.156;17.038;2023-02-25T16:17:32;3.78;;;2.47;;
52354;SDS011;38286;51.156;17.038;2023-02-25T16:20:08;3.45;;;2.20;;
52354;SDS011;38286;51.156;17.038;2023-02-25T16:22:55;3.05;;;2.63;;
52354;SDS011;38286;51.156;17.038;2023-02-25T16:25:36;3.45;;;2.40;;
52354;SDS011;38286;51.156;17.038;2023-02-25T16:28:20;3.47;;;2.25;;
52354;SDS011;38286;51.156;17.038;2023-02-25T16:30:57;4.75;;;2.70;;
52354;SDS011;38286;51.156;17.038;2023-02-25T16:33:29;3.88;;;2.42;;
52354;SDS011;38286;51.156;17.038;2023-02-25T16:39:07;4.68;;;2.65;;
52354;SDS011;38286;51.156;17.038;2023-02-25T16:41:36;5.93;;;2.83;;
52354;SDS011;38286;51.156;17.038;2023-02-25T16:44:02;5.10;;;3.03;;
52354;SDS011;38286;51.156;17.038;2023-02-25T16:46:29;5.13;;;3.22;;
52354;SDS011;38286;51.156;17.038;2023-02-25T16:48:57;6.93;;;3.17;;
52354;SDS011;38286;51.156;17.038;2023-02-25T16:54:04;4.28;;;2.88;;
52354;SDS011;38286;51.156;17.038;2023-02-25T16:56:36;5.28;;;2.85;;
52354;SDS011;38286;51.156;17.038;2023-02-25T17:01:34;3.10;;;2.50;;
52354;SDS011;38286;51.156;17.038;2023-02-25T17:06:34;4.85;;;3.05;;
52354;SDS011;38286;51.156;17.038;2023-02-25T17:08:59;4.63;;;3.03;;
52354;SDS011;38286;51.156;17.038;2023-02-25T17:11:25;3.30;;;2.20;;
52354;SDS011;38286;51.156;17.038;2023-02-25T17:13:52;5.70;;;2.50;;
52354;SDS011;38286;51.156;17.038;2023-02-25T17:16:23;4.43;;;2.03;;
52354;SDS011;38286;51.156;17.038;2023-02-25T17:19:01;3.60;;;2.70;;
52354;SDS011;38286;51.156;17.038;2023-02-25T17:21:29;5.10;;;2.95;;
52354;SDS011;38286;51.156;17.038;2023-02-25T17:23:58;5.07;;;2.70;;
52354;SDS011;38286;51.156;17.038;2023-02-25T17:26:25;5.80;;;3.83;;
52354;SDS011;38286;51.156;17.038;2023-02-25T17:28:51;5.93;;;2.97;;
52354;SDS011;38286;51.156;17.038;2023-02-25T17:31:20;4.65;;;3.22;;
52354;SDS011;38286;51.156;17.038;2023-02-25T17:34:00;5.53;;;3.72;;
52354;SDS011;38286;51.156;17.038;2023-02-25T17:36:32;8.70;;;6.00;;
52354;SDS011;38286;51.156;17.038;2023-02-25T17:39:15;7.63;;;4.95;;
52354;SDS011;38286;51.156;17.038;2023-02-25T17:41:42;8.45;;;5.15;;
52354;SDS011;38286;51.156;17.038;2023-02-25T17:44:09;6.63;;;4.65;;
52354;SDS011;38286;51.156;17.038;2023-02-25T17:46:37;6.53;;;4.53;;
52354;SDS011;38286;51.156;17.038;2023-02-25T17:51:42;5.60;;;5.03;;
52354;SDS011;38286;51.156;17.038;2023-02-25T17:54:10;4.45;;;3.35;;
52354;SDS011;38286;51.156;17.038;2023-02-25T17:56:38;7.13;;;4.72;;
52354;SDS011;38286;51.156;17.038;2023-02-25T17:59:46;6.57;;;3.55;;
52354;SDS011;38286;51.156;17.038;2023-02-25T18:01:56;19.10;;;11.52;;
52354;SDS011;38286;51.156;17.038;2023-02-25T18:04:44;7.30;;;3.83;;
52354;SDS011;38286;51.156;17.038;2023-02-25T18:07:19;8.23;;;5.07;;
52354;SDS011;38286;51.156;17.038;2023-02-25T18:09:56;6.05;;;3.45;;
52354;SDS011;38286;51.156;17.038;2023-02-25T18:14:55;5.68;;;3.90;;
52354;SDS011;38286;51.156;17.038;2023-02-25T18:17:24;7.40;;;4.15;;
52354;SDS011;38286;51.156;17.038;2023-02-25T18:23:38;5.43;;;3.50;;
52354;SDS011;38286;51.156;17.038;2023-02-25T18:25:47;5.05;;;3.53;;
52354;SDS011;38286;51.156;17.038;2023-02-25T18:28:17;4.03;;;2.80;;
52354;SDS011;38286;51.156;17.038;2023-02-25T18:30:46;7.25;;;4.25;;
52354;SDS011;38286;51.156;17.038;2023-02-25T18:33:13;8.05;;;4.03;;
52354;SDS011;38286;51.156;17.038;2023-02-25T18:35:41;5.28;;;3.40;;
52354;SDS011;38286;51.156;17.038;2023-02-25T18:38:09;5.82;;;3.53;;
52354;SDS011;38286;51.156;17.038;2023-02-25T18:40:40;6.13;;;3.05;;
52354;SDS011;38286;51.156;17.038;2023-02-25T18:43:06;4.70;;;3.45;;
52354;SDS011;38286;51.156;17.038;2023-02-25T18:45:34;7.80;;;4.55;;
52354;SDS011;38286;51.156;17.038;2023-02-25T18:48:00;5.75;;;4.57;;
52354;SDS011;38286;51.156;17.038;2023-02-25T18:50:29;8.50;;;5.50;;
52354;SDS011;38286;51.156;17.038;2023-02-25T18:52:55;6.60;;;3.92;;
52354;SDS011;38286;51.156;17.038;2023-02-25T18:55:22;5.35;;;3.33;;
52354;SDS011;38286;51.156;17.038;2023-02-25T18:57:50;6.28;;;3.38;;
52354;SDS011;38286;51.156;17.038;2023-02-25T19:00:16;5.70;;;4.05;;
52354;SDS011;38286;51.156;17.038;2023-02-25T19:02:51;6.30;;;4.07;;
52354;SDS011;38286;51.156;17.038;2023-02-25T19:05:18;5.32;;;3.53;;